»·PEaware :: N9229P KAPA-KFNL

N9229P :: KAPA-KFNL

FLIGHT INFORMATION

Flight Status: Arrived
Operator: Privately registered:
United States
More flights under this callsign
Pilot: James W. (24810)
Aircraft: PIPER PA-24 COMMANCHE
(PA24)
More flights by this aircraft type
Origin: KAPA Centennial
United States
Destination: KFNL Ft Collins-Loveland Mun
United States
More flights between these airports :: More routes between these airports
Route: +DEN2 BJC IMOMY
File this flight plan on PilotEdge
Remarks: +CW /
Altitude:
(Current/Filed)
8,000ft
Speed:
(Current/Filed)
160kts
Departed: 02-Mar-20 07:30 PM
Arrived: 02-Mar-20 07:57 PM
Distance/Time
Traveled:
53nm/0:27
Distance/Time
To Go:
Arrived

Flight Plot

Page will automatically refresh every two minutes.

Flight plan parsing failed; only flown route is shown


Map Options




Map Legend


Flown Route
Filed Route
Departure Airport
Arrival Airport
Navaid (VOR, NDB)
Fix

Horizontal Profiles

Position Reports

Time Latitude Longitude Heading Altitude Ground
Speed
02-Mar-20 19:07 39.582654 -104.848948 269 5886ft 0kts
02-Mar-20 19:08 39.582654 -104.848948 269 5886ft 0kts
02-Mar-20 19:09 39.582654 -104.848948 269 5886ft 0kts
02-Mar-20 19:10 39.582654 -104.848948 269 5886ft 0kts
02-Mar-20 19:11 39.582654 -104.848948 269 5886ft 0kts
02-Mar-20 19:12 39.582654 -104.848948 269 5886ft 0kts
02-Mar-20 19:13 39.582654 -104.848948 269 5886ft 0kts
02-Mar-20 19:14 39.582654 -104.848948 269 5886ft 0kts
02-Mar-20 19:15 39.582654 -104.848948 269 5886ft 0kts
02-Mar-20 19:16 39.582654 -104.848948 269 5886ft 0kts
02-Mar-20 19:17 39.582654 -104.848948 269 5886ft 0kts
02-Mar-20 19:18 39.582654 -104.848948 269 5886ft 0kts
02-Mar-20 19:19 39.582648 -104.849008 253 5886ft 1kts
02-Mar-20 19:20 39.582029 -104.849983 177 5886ft 6kts
02-Mar-20 19:21 39.578178 -104.849791 178 5886ft 17kts
02-Mar-20 19:22 39.573467 -104.849580 177 5886ft 14kts
02-Mar-20 19:23 39.569670 -104.849396 177 5886ft 14kts
02-Mar-20 19:24 39.565280 -104.849192 177 5886ft 16kts
02-Mar-20 19:25 39.561341 -104.849015 178 5886ft 10kts
02-Mar-20 19:26 39.558450 -104.848881 177 5886ft 9kts
02-Mar-20 19:27 39.556829 -104.848972 252 5886ft 0kts
02-Mar-20 19:28 39.556826 -104.848988 256 5886ft 1kts
02-Mar-20 19:29 39.560285 -104.850355 357 5886ft 76kts
02-Mar-20 19:30 39.593171 -104.850495 358 6531ft 144kts
02-Mar-20 19:31 39.634791 -104.851536 351 7430ft 153kts
02-Mar-20 19:32 39.669297 -104.882936 321 8122ft 154kts
02-Mar-20 19:33 39.702546 -104.917443 320 8146ft 165kts
02-Mar-20 19:34 39.736703 -104.953333 320 8146ft 167kts
02-Mar-20 19:35 39.773291 -104.991840 320 8146ft 167kts
02-Mar-20 19:36 39.809429 -105.029919 320 8146ft 167kts
02-Mar-20 19:37 39.845653 -105.068140 320 8146ft 167kts
02-Mar-20 19:38 39.881903 -105.106442 320 8146ft 167kts
02-Mar-20 19:39 39.921745 -105.133055 11 8143ft 167kts
02-Mar-20 19:40 39.964180 -105.108340 24 8146ft 167kts
02-Mar-20 19:41 40.006485 -105.082872 24 8146ft 167kts
02-Mar-20 19:42 40.048800 -105.057306 24 8146ft 167kts
02-Mar-20 19:43 40.091081 -105.031729 24 8146ft 167kts
02-Mar-20 19:44 40.132703 -105.006470 24 8143ft 151kts
02-Mar-20 19:45 40.167794 -104.985185 24 8145ft 132kts
02-Mar-20 19:46 40.197637 -104.967130 24 7948ft 116kts
02-Mar-20 19:47 40.226629 -104.949630 24 7748ft 117kts
02-Mar-20 19:48 40.256162 -104.931602 24 7748ft 109kts
02-Mar-20 19:49 40.284287 -104.934906 341 7543ft 107kts
02-Mar-20 19:50 40.310757 -104.947102 340 7038ft 99kts
02-Mar-20 19:51 40.336959 -104.959215 340 6846ft 99kts
02-Mar-20 19:52 40.363404 -104.971476 340 6707ft 106kts
02-Mar-20 19:53 40.391184 -104.984369 340 6160ft 104kts
02-Mar-20 19:54 40.417670 -104.996688 340 5559ft 97kts
02-Mar-20 19:55 40.442447 -105.008184 339 5035ft 76kts
02-Mar-20 19:56 40.451418 -105.012363 340 5018ft 17kts
02-Mar-20 19:57 40.457079 -105.014644 50 5018ft 11kts
02-Mar-20 19:58 40.453576 -105.011814 160 5018ft 24kts
02-Mar-20 19:59 40.449447 -105.009854 142 5018ft 9kts
02-Mar-20 20:00 40.448750 -105.007848 69 5018ft 0kts

Navigation Log

Ident Type
Flight plan parsing failed, navigation log unavailable